createdAt,value
2017-10-22T00:00:18.931Z,0.00
2017-10-22T00:01:18.939Z,0.00
2017-10-22T00:02:18.958Z,0.00
2017-10-22T00:03:18.957Z,0.00
2017-10-22T00:04:19.058Z,0.00
2017-10-22T00:05:18.966Z,0.00
2017-10-22T00:06:19.042Z,0.00
2017-10-22T00:07:19.014Z,0.00
2017-10-22T00:08:18.989Z,0.00
2017-10-22T00:09:19.016Z,0.00
2017-10-22T00:10:19.015Z,0.00
2017-10-22T00:11:19.068Z,0.00
2017-10-22T00:12:19.054Z,0.00
2017-10-22T00:13:19.031Z,0.00
2017-10-22T00:14:19.052Z,0.00
2017-10-22T00:15:19.107Z,0.00
2017-10-22T00:16:19.093Z,0.00
2017-10-22T00:17:19.061Z,0.00
2017-10-22T00:18:19.086Z,0.00
2017-10-22T00:19:19.089Z,0.00
2017-10-22T00:20:19.094Z,0.00
2017-10-22T00:21:19.184Z,0.00
2017-10-22T00:22:19.098Z,0.00
2017-10-22T00:23:19.118Z,0.00
2017-10-22T00:24:19.131Z,0.00
2017-10-22T00:25:19.198Z,0.00
2017-10-22T00:26:19.127Z,0.00
2017-10-22T00:27:19.186Z,0.00
2017-10-22T00:28:19.157Z,0.00
2017-10-22T00:29:19.190Z,0.00
2017-10-22T00:30:19.165Z,0.00
2017-10-22T00:31:19.169Z,0.00
2017-10-22T00:32:19.180Z,0.00
2017-10-22T00:33:19.205Z,0.00
2017-10-22T00:34:19.192Z,0.00
2017-10-22T00:35:19.213Z,0.00
2017-10-22T00:36:19.225Z,0.00
2017-10-22T00:37:19.212Z,0.00
2017-10-22T00:38:19.230Z,0.00
2017-10-22T00:39:19.222Z,0.00
2017-10-22T00:40:19.234Z,0.00
2017-10-22T00:41:19.225Z,0.00
2017-10-22T00:42:19.295Z,0.00
2017-10-22T00:43:19.258Z,0.00
2017-10-22T00:44:19.308Z,0.00
2017-10-22T00:45:19.257Z,0.00
2017-10-22T00:46:19.271Z,0.00
2017-10-22T00:47:19.364Z,0.00
2017-10-22T00:48:19.330Z,0.00
2017-10-22T00:49:19.302Z,0.00
2017-10-22T00:50:19.337Z,0.00
2017-10-22T00:51:19.338Z,0.00
2017-10-22T00:52:19.334Z,0.00
2017-10-22T00:53:19.323Z,0.00
2017-10-22T00:54:19.379Z,0.00
2017-10-22T00:55:19.361Z,0.00
2017-10-22T00:56:19.376Z,0.00
2017-10-22T00:57:19.394Z,0.00
2017-10-22T00:58:19.378Z,0.00
2017-10-22T00:59:19.393Z,0.00
2017-10-22T01:00:19.403Z,0.00
2017-10-22T01:01:19.417Z,0.00
2017-10-22T01:02:19.394Z,0.00
2017-10-22T01:03:19.400Z,0.00
2017-10-22T01:04:19.415Z,0.00
2017-10-22T01:05:23.670Z,0.00
2017-10-22T01:06:19.520Z,0.00
2017-10-22T01:07:19.451Z,0.00
2017-10-22T01:08:19.414Z,0.00
2017-10-22T01:09:19.452Z,0.00
2017-10-22T01:10:19.488Z,0.00
2017-10-22T01:11:19.437Z,0.00
2017-10-22T01:12:19.467Z,0.00
2017-10-22T01:13:19.487Z,0.00
2017-10-22T01:14:19.492Z,0.00
2017-10-22T01:15:19.517Z,0.00
2017-10-22T01:16:19.510Z,0.00
2017-10-22T01:17:19.540Z,0.00
2017-10-22T01:18:19.484Z,0.00
2017-10-22T01:19:19.529Z,0.00
2017-10-22T01:20:19.593Z,0.00
2017-10-22T01:21:19.523Z,0.00
2017-10-22T01:22:19.552Z,0.00
2017-10-22T01:23:19.548Z,0.00
2017-10-22T01:24:19.551Z,0.00
2017-10-22T01:25:19.548Z,0.00
2017-10-22T01:26:19.611Z,0.00
2017-10-22T01:27:19.636Z,0.00
2017-10-22T01:28:19.576Z,0.00
2017-10-22T01:29:19.587Z,0.00
2017-10-22T01:30:19.592Z,0.00
2017-10-22T01:31:19.608Z,0.00
2017-10-22T01:32:19.610Z,0.00
2017-10-22T01:33:19.616Z,0.00
2017-10-22T01:34:19.596Z,0.00
2017-10-22T01:35:19.604Z,0.00
2017-10-22T01:36:19.627Z,0.00
2017-10-22T01:37:19.659Z,0.00
2017-10-22T01:38:19.629Z,0.00
2017-10-22T01:39:19.682Z,0.00
2017-10-22T01:40:19.634Z,0.00
2017-10-22T01:41:19.717Z,0.00
2017-10-22T01:42:19.707Z,0.00
2017-10-22T01:43:19.660Z,0.00
2017-10-22T01:44:19.696Z,0.00
2017-10-22T01:45:19.694Z,0.00
2017-10-22T01:46:19.707Z,0.00
2017-10-22T01:47:19.698Z,0.00
2017-10-22T01:48:19.720Z,0.00
2017-10-22T01:49:19.734Z,0.00
2017-10-22T01:50:19.718Z,0.00
2017-10-22T01:51:19.748Z,0.00
2017-10-22T01:52:19.762Z,0.00
2017-10-22T01:53:19.730Z,0.00
2017-10-22T01:54:19.774Z,0.00
2017-10-22T01:55:19.769Z,0.00
2017-10-22T01:56:19.760Z,0.00
2017-10-22T01:57:19.773Z,0.00
2017-10-22T01:58:19.786Z,0.00
2017-10-22T01:59:19.836Z,0.00
2017-10-22T02:00:19.802Z,0.00
2017-10-22T02:01:19.824Z,0.00
2017-10-22T02:02:19.807Z,0.00
2017-10-22T02:03:19.805Z,0.00
2017-10-22T02:04:19.795Z,0.00
2017-10-22T02:05:19.808Z,0.00
2017-10-22T02:06:19.818Z,0.00
2017-10-22T02:07:19.836Z,0.00
2017-10-22T02:08:19.848Z,0.00
2017-10-22T02:09:19.876Z,0.00
2017-10-22T02:10:19.869Z,0.00
2017-10-22T02:11:19.851Z,0.00
2017-10-22T02:12:19.896Z,0.00
2017-10-22T02:13:19.891Z,0.00
2017-10-22T02:14:19.911Z,0.00
2017-10-22T02:15:19.987Z,0.00
2017-10-22T02:16:19.934Z,0.00
2017-10-22T02:17:19.908Z,0.00
2017-10-22T02:18:19.926Z,0.00
2017-10-22T02:19:19.900Z,0.00
2017-10-22T02:20:19.935Z,0.00
2017-10-22T02:21:19.945Z,0.00
2017-10-22T02:22:19.913Z,0.00
2017-10-22T02:23:19.967Z,0.00
2017-10-22T02:24:19.970Z,0.00
2017-10-22T02:25:19.946Z,0.00
2017-10-22T02:26:19.944Z,0.00
2017-10-22T02:27:20.004Z,0.00
2017-10-22T02:28:19.961Z,0.00
2017-10-22T02:29:19.958Z,0.00
2017-10-22T02:30:20.019Z,0.00
2017-10-22T02:31:20.003Z,0.00
2017-10-22T02:32:20.013Z,0.00
2017-10-22T02:33:20.029Z,0.00
2017-10-22T02:34:20.010Z,0.00
2017-10-22T02:35:20.018Z,0.00
2017-10-22T02:36:20.033Z,0.00
2017-10-22T02:37:20.037Z,0.00
2017-10-22T02:38:20.034Z,0.00
2017-10-22T02:39:20.084Z,0.00
2017-10-22T02:40:20.051Z,0.00
2017-10-22T02:41:20.056Z,0.00
2017-10-22T02:42:20.058Z,0.00
2017-10-22T02:43:20.078Z,0.00
2017-10-22T02:44:20.078Z,0.00
2017-10-22T02:45:20.080Z,0.00
2017-10-22T02:46:20.135Z,0.00
2017-10-22T02:47:20.134Z,0.00
2017-10-22T02:48:20.129Z,0.00
2017-10-22T02:49:20.160Z,0.00
2017-10-22T02:50:20.128Z,0.00
2017-10-22T02:51:20.115Z,0.00
2017-10-22T02:52:20.152Z,0.00
2017-10-22T02:53:20.145Z,0.00
2017-10-22T02:54:20.197Z,0.00
2017-10-22T02:55:20.176Z,0.00
2017-10-22T02:56:20.181Z,0.00
2017-10-22T02:57:20.164Z,0.00
2017-10-22T02:58:20.160Z,0.00
2017-10-22T02:59:20.201Z,0.00
2017-10-22T03:00:20.220Z,0.00
2017-10-22T03:01:20.179Z,0.00
2017-10-22T03:02:20.218Z,0.00
2017-10-22T03:03:20.228Z,0.00
2017-10-22T03:04:20.233Z,0.00
2017-10-22T03:05:20.249Z,0.00
2017-10-22T03:06:20.235Z,0.00
2017-10-22T03:07:20.258Z,0.00
2017-10-22T03:08:20.239Z,0.00
2017-10-22T03:09:20.245Z,0.00
2017-10-22T03:10:20.245Z,0.00
2017-10-22T03:11:20.280Z,0.00
2017-10-22T03:12:20.273Z,0.00
2017-10-22T03:13:20.303Z,0.00
2017-10-22T03:14:20.291Z,0.00
2017-10-22T03:15:20.276Z,0.00
2017-10-22T03:16:20.321Z,0.00
2017-10-22T03:17:20.324Z,0.00
2017-10-22T03:18:20.330Z,0.00
2017-10-22T03:19:20.394Z,0.00
2017-10-22T03:20:20.322Z,0.00
2017-10-22T03:21:20.329Z,0.00
2017-10-22T03:22:20.343Z,0.00
2017-10-22T03:23:20.357Z,0.00
2017-10-22T03:24:20.372Z,0.00
2017-10-22T03:25:20.388Z,0.00
2017-10-22T03:26:20.376Z,0.00
2017-10-22T03:27:20.364Z,0.00
2017-10-22T03:28:20.484Z,0.00
2017-10-22T03:29:20.377Z,0.00
2017-10-22T03:30:20.399Z,0.00
2017-10-22T03:31:20.439Z,0.00
2017-10-22T03:32:20.451Z,0.00
2017-10-22T03:33:20.396Z,0.00
2017-10-22T03:34:20.415Z,0.00
2017-10-22T03:35:20.427Z,0.00
2017-10-22T03:36:20.461Z,0.00
2017-10-22T03:37:20.423Z,0.00
2017-10-22T03:38:20.442Z,0.00
2017-10-22T03:39:20.458Z,0.00
2017-10-22T03:40:20.535Z,0.00
2017-10-22T03:41:20.461Z,0.00
2017-10-22T03:42:20.489Z,0.00
2017-10-22T03:43:20.503Z,0.00
2017-10-22T03:44:20.535Z,0.00
2017-10-22T03:45:20.493Z,0.00
2017-10-22T03:46:20.516Z,0.00
2017-10-22T03:47:20.499Z,0.00
2017-10-22T03:48:20.504Z,0.00
2017-10-22T03:49:20.510Z,0.00
2017-10-22T03:50:20.534Z,0.00
2017-10-22T03:51:20.568Z,0.00
2017-10-22T03:52:20.594Z,0.00
2017-10-22T03:53:20.551Z,0.00
2017-10-22T03:54:20.565Z,0.00
2017-10-22T03:55:20.573Z,0.00
2017-10-22T03:56:20.603Z,0.00
2017-10-22T03:57:20.582Z,0.00
2017-10-22T03:58:20.566Z,0.00
2017-10-22T03:59:20.586Z,0.00
2017-10-22T04:00:20.602Z,0.00
2017-10-22T04:01:20.604Z,0.00
2017-10-22T04:02:20.581Z,0.00
2017-10-22T04:03:20.697Z,0.00
2017-10-22T04:04:20.646Z,0.00
2017-10-22T04:05:20.671Z,0.00
2017-10-22T04:06:20.630Z,0.00
2017-10-22T04:07:20.684Z,0.00
2017-10-22T04:08:20.647Z,0.00
2017-10-22T04:09:20.642Z,0.00
2017-10-22T04:10:20.657Z,0.00
2017-10-22T04:11:20.668Z,0.00
2017-10-22T04:12:20.689Z,0.00
2017-10-22T04:13:20.676Z,0.00
2017-10-22T04:14:20.685Z,0.00
2017-10-22T04:15:20.767Z,0.00
2017-10-22T04:16:20.698Z,0.00
2017-10-22T04:17:20.703Z,0.00
2017-10-22T04:18:20.710Z,0.00
2017-10-22T04:19:20.729Z,0.00
2017-10-22T04:20:20.708Z,0.00
2017-10-22T04:21:20.721Z,0.00
2017-10-22T04:22:20.713Z,0.00
2017-10-22T04:23:20.738Z,0.00
2017-10-22T04:24:20.755Z,0.00
2017-10-22T04:25:20.768Z,0.00
2017-10-22T04:26:20.759Z,0.00
2017-10-22T04:27:20.862Z,0.00
2017-10-22T04:28:20.805Z,0.00
2017-10-22T04:29:20.779Z,0.00
2017-10-22T04:30:20.816Z,0.00
2017-10-22T04:31:20.818Z,0.00
2017-10-22T04:32:20.790Z,0.00
2017-10-22T04:33:20.820Z,0.00
2017-10-22T04:34:20.802Z,0.00
2017-10-22T04:35:20.863Z,0.00
2017-10-22T04:36:20.889Z,0.00
2017-10-22T04:37:20.874Z,0.00
2017-10-22T04:38:20.838Z,0.00
2017-10-22T04:39:20.834Z,0.00
2017-10-22T04:40:20.896Z,0.00
2017-10-22T04:41:20.879Z,0.00
2017-10-22T04:42:20.866Z,0.00
2017-10-22T04:43:20.875Z,0.00
2017-10-22T04:44:20.858Z,0.00
2017-10-22T04:45:20.903Z,0.00
2017-10-22T04:46:20.890Z,0.00
2017-10-22T04:47:20.873Z,0.00
2017-10-22T04:48:20.907Z,0.00
2017-10-22T04:49:20.942Z,0.00
2017-10-22T04:50:20.931Z,0.00
2017-10-22T04:51:20.918Z,0.00
2017-10-22T04:52:20.966Z,0.00
2017-10-22T04:53:20.925Z,0.00
2017-10-22T04:54:20.945Z,0.00
2017-10-22T04:55:20.963Z,0.00
2017-10-22T04:56:20.939Z,0.00
2017-10-22T04:57:20.956Z,0.00
2017-10-22T04:58:21.005Z,0.00
2017-10-22T04:59:20.996Z,0.00
2017-10-22T05:00:20.973Z,0.00
2017-10-22T05:01:21.030Z,0.00
2017-10-22T05:02:20.977Z,0.00
2017-10-22T05:03:20.977Z,0.00
2017-10-22T05:04:21.007Z,0.00
2017-10-22T05:05:21.043Z,0.00
2017-10-22T05:06:20.996Z,0.00
2017-10-22T05:07:21.023Z,0.00
2017-10-22T05:08:21.052Z,0.00
2017-10-22T05:09:21.034Z,0.00
2017-10-22T05:10:21.044Z,0.00
2017-10-22T05:11:21.115Z,0.00
2017-10-22T05:12:21.048Z,0.00
2017-10-22T05:13:21.080Z,0.00
2017-10-22T05:14:21.065Z,0.00
2017-10-22T05:15:21.093Z,0.00
2017-10-22T05:16:21.138Z,0.00
2017-10-22T05:17:21.117Z,0.00
2017-10-22T05:18:21.088Z,0.00
2017-10-22T05:19:21.111Z,0.00
2017-10-22T05:20:21.095Z,0.00
2017-10-22T05:21:21.131Z,0.00
2017-10-22T05:22:21.113Z,0.00
2017-10-22T05:23:21.131Z,0.00
2017-10-22T05:24:21.108Z,0.00
2017-10-22T05:25:21.140Z,0.00
2017-10-22T05:26:21.131Z,0.00
2017-10-22T05:27:21.183Z,0.00
2017-10-22T05:28:21.174Z,0.00
2017-10-22T05:29:21.197Z,4.00
2017-10-22T05:30:21.155Z,4.00
2017-10-22T05:31:21.168Z,0.00
2017-10-22T05:32:21.177Z,4.00
2017-10-22T05:33:21.174Z,4.00
2017-10-22T05:34:21.202Z,4.00
2017-10-22T05:35:21.189Z,4.00
2017-10-22T05:36:21.204Z,8.00
2017-10-22T05:37:21.193Z,8.00
2017-10-22T05:38:21.194Z,12.00
2017-10-22T05:39:21.210Z,12.00
2017-10-22T05:40:21.240Z,20.00
2017-10-22T05:41:21.217Z,20.00
2017-10-22T05:42:21.251Z,24.00
2017-10-22T05:43:21.268Z,28.00
2017-10-22T05:44:21.263Z,36.00
2017-10-22T05:45:21.278Z,40.00
2017-10-22T05:46:21.276Z,44.00
2017-10-22T05:47:21.296Z,52.00
2017-10-22T05:48:21.290Z,60.00
2017-10-22T05:49:21.340Z,68.00
2017-10-22T05:50:21.271Z,80.00
2017-10-22T05:51:21.330Z,96.00
2017-10-22T05:52:21.302Z,104.00
2017-10-22T05:53:21.308Z,120.00
2017-10-22T05:54:21.323Z,136.00
2017-10-22T05:55:21.339Z,148.00
2017-10-22T05:56:21.342Z,164.00
2017-10-22T05:57:21.318Z,184.00
2017-10-22T05:58:21.353Z,208.00
2017-10-22T05:59:21.327Z,228.00
2017-10-22T06:00:21.365Z,248.00
2017-10-22T06:01:21.360Z,272.00
2017-10-22T06:02:21.380Z,296.00
2017-10-22T06:03:21.363Z,316.00
2017-10-22T06:04:21.378Z,340.00
2017-10-22T06:05:21.394Z,368.00
2017-10-22T06:06:21.402Z,396.00
2017-10-22T06:07:21.409Z,424.00
2017-10-22T06:08:21.398Z,456.00
2017-10-22T06:09:21.420Z,484.00
2017-10-22T06:10:21.410Z,512.00
2017-10-22T06:11:21.409Z,540.00
2017-10-22T06:12:21.421Z,572.00
2017-10-22T06:13:21.434Z,608.00
2017-10-22T06:14:21.465Z,624.00
2017-10-22T06:15:21.545Z,656.00
2017-10-22T06:16:21.447Z,692.00
2017-10-22T06:17:21.437Z,728.00
2017-10-22T06:18:21.492Z,764.00
2017-10-22T06:19:21.445Z,780.00
2017-10-22T06:20:21.476Z,816.00
2017-10-22T06:21:21.484Z,856.00
2017-10-22T06:22:21.509Z,876.00
2017-10-22T06:23:21.474Z,912.00
2017-10-22T06:24:21.501Z,940.00
2017-10-22T06:25:21.499Z,972.00
2017-10-22T06:26:21.548Z,996.00
2017-10-22T06:27:21.502Z,1024.00
2017-10-22T06:28:21.519Z,1052.00
2017-10-22T06:29:21.512Z,1080.00
2017-10-22T06:30:21.569Z,1108.00
2017-10-22T06:31:21.565Z,1136.00
2017-10-22T06:32:21.557Z,1164.00
2017-10-22T06:33:21.541Z,1192.00
2017-10-22T06:34:21.564Z,1220.00
2017-10-22T06:35:21.554Z,1248.00
2017-10-22T06:36:21.560Z,1268.00
2017-10-22T06:37:21.610Z,1296.00
2017-10-22T06:38:21.584Z,1316.00
2017-10-22T06:39:21.582Z,1344.00
2017-10-22T06:40:21.608Z,1364.00
2017-10-22T06:41:21.581Z,1388.00
2017-10-22T06:42:21.607Z,1416.00
2017-10-22T06:43:21.603Z,1436.00
2017-10-22T06:44:21.594Z,1456.00
2017-10-22T06:45:21.655Z,1476.00
2017-10-22T06:46:21.625Z,1504.00
2017-10-22T06:47:21.621Z,1524.00
2017-10-22T06:48:21.669Z,1544.00
2017-10-22T06:49:21.654Z,1564.00
2017-10-22T06:50:21.641Z,1580.00
2017-10-22T06:51:21.666Z,1600.00
2017-10-22T06:52:21.666Z,1624.00
2017-10-22T06:53:21.686Z,1656.00
2017-10-22T06:54:21.683Z,1684.00
2017-10-22T06:55:21.690Z,1732.00
2017-10-22T06:56:21.711Z,1740.00
2017-10-22T06:57:21.759Z,1728.00
2017-10-22T06:58:21.695Z,1752.00
2017-10-22T06:59:21.745Z,1776.00
2017-10-22T07:00:21.702Z,1788.00
2017-10-22T07:01:21.717Z,1804.00
2017-10-22T07:02:21.714Z,1828.00
2017-10-22T07:03:21.712Z,1852.00
2017-10-22T07:04:21.727Z,1872.00
2017-10-22T07:05:21.739Z,1900.00
2017-10-22T07:06:21.789Z,1932.00
2017-10-22T07:07:21.761Z,1960.00
2017-10-22T07:08:21.754Z,1984.00
2017-10-22T07:09:21.801Z,2012.00
2017-10-22T07:10:21.792Z,2008.00
2017-10-22T07:11:21.824Z,2028.00
2017-10-22T07:12:21.765Z,2048.00
2017-10-22T07:13:21.785Z,2080.00
2017-10-22T07:14:21.798Z,2208.00
2017-10-22T07:15:21.850Z,2260.00
2017-10-22T07:16:21.831Z,2152.00
2017-10-22T07:17:21.806Z,2148.00
2017-10-22T07:18:21.825Z,2176.00
2017-10-22T07:19:21.841Z,2244.00
2017-10-22T07:20:21.828Z,2232.00
2017-10-22T07:21:21.847Z,2196.00
2017-10-22T07:22:21.854Z,2208.00
2017-10-22T07:23:21.845Z,2232.00
2017-10-22T07:24:21.849Z,2256.00
2017-10-22T07:25:21.864Z,2292.00
2017-10-22T07:26:21.880Z,2336.00
2017-10-22T07:27:21.890Z,2352.00
2017-10-22T07:28:21.892Z,2388.00
2017-10-22T07:29:21.897Z,2416.00
2017-10-22T07:30:21.905Z,2440.00
2017-10-22T07:31:21.910Z,2460.00
2017-10-22T07:32:21.956Z,2480.00
2017-10-22T07:33:21.897Z,2504.00
2017-10-22T07:34:21.914Z,2516.00
2017-10-22T07:35:21.920Z,2544.00
2017-10-22T07:36:21.923Z,2580.00
2017-10-22T07:37:21.945Z,2616.00
2017-10-22T07:38:21.956Z,2664.00
2017-10-22T07:39:21.944Z,2720.00
2017-10-22T07:40:21.980Z,2744.00
2017-10-22T07:41:21.990Z,2912.00
2017-10-22T07:42:21.978Z,3196.00
2017-10-22T07:43:21.981Z,3388.00
2017-10-22T07:44:22.024Z,3132.00
2017-10-22T07:45:22.003Z,3172.00
2017-10-22T07:46:22.022Z,3284.00
2017-10-22T07:47:22.004Z,3276.00
2017-10-22T07:48:21.999Z,3208.00
2017-10-22T07:49:22.007Z,3188.00
2017-10-22T07:50:22.014Z,3700.00
2017-10-22T07:51:22.054Z,8252.00
2017-10-22T07:52:22.070Z,6812.00
2017-10-22T07:53:22.065Z,5284.00
2017-10-22T07:54:22.053Z,6228.00
2017-10-22T07:55:22.090Z,7700.00
2017-10-22T07:56:22.056Z,9800.00
2017-10-22T07:57:22.060Z,10768.00
2017-10-22T07:58:22.108Z,11016.00
2017-10-22T07:59:22.098Z,10352.00
2017-10-22T08:00:22.108Z,10056.00
2017-10-22T08:01:22.117Z,10468.00
2017-10-22T08:02:22.146Z,10636.00
2017-10-22T08:03:22.113Z,11124.00
2017-10-22T08:04:22.182Z,11704.00
2017-10-22T08:05:22.180Z,12060.00
2017-10-22T08:06:22.155Z,12716.00
2017-10-22T08:07:22.159Z,13100.00
2017-10-22T08:08:22.135Z,12924.00
2017-10-22T08:09:22.147Z,7436.00
2017-10-22T08:10:22.241Z,13360.00
2017-10-22T08:11:22.187Z,14100.00
2017-10-22T08:12:22.212Z,14012.00
2017-10-22T08:13:22.197Z,12864.00
2017-10-22T08:14:22.200Z,10520.00
2017-10-22T08:15:22.191Z,12696.00
2017-10-22T08:16:22.211Z,13088.00
2017-10-22T08:17:22.205Z,13152.00
2017-10-22T08:18:22.228Z,12524.00
2017-10-22T08:19:22.224Z,12004.00
2017-10-22T08:20:22.252Z,9720.00
2017-10-22T08:21:22.235Z,6208.00
2017-10-22T08:22:22.244Z,10832.00
2017-10-22T08:23:22.306Z,5440.00
2017-10-22T08:24:22.271Z,5624.00
2017-10-22T08:25:22.272Z,14944.00
2017-10-22T08:26:22.313Z,7972.00
2017-10-22T08:27:22.281Z,14880.00
2017-10-22T08:28:22.306Z,5596.00
2017-10-22T08:29:22.313Z,15040.00
2017-10-22T08:30:22.327Z,5436.00
2017-10-22T08:31:22.306Z,6028.00
2017-10-22T08:32:22.381Z,8200.00
2017-10-22T08:33:22.329Z,5900.00
2017-10-22T08:34:22.329Z,5612.00
2017-10-22T08:35:22.355Z,5812.00
2017-10-22T08:36:22.343Z,5048.00
2017-10-22T08:37:22.345Z,4504.00
2017-10-22T08:38:22.362Z,4688.00
2017-10-22T08:39:22.427Z,4620.00
2017-10-22T08:40:22.380Z,4936.00
2017-10-22T08:41:22.383Z,5240.00
2017-10-22T08:42:22.407Z,4612.00
2017-10-22T08:43:22.472Z,4356.00
2017-10-22T08:44:22.398Z,3784.00
2017-10-22T08:45:22.434Z,4500.00
2017-10-22T08:46:22.428Z,4188.00
2017-10-22T08:47:22.463Z,4904.00
2017-10-22T08:48:22.430Z,5620.00
2017-10-22T08:49:22.487Z,5684.00
2017-10-22T08:50:22.448Z,4536.00
2017-10-22T08:51:22.468Z,4584.00
2017-10-22T08:52:22.495Z,4584.00
2017-10-22T08:53:22.471Z,4728.00
2017-10-22T08:54:22.476Z,5008.00
2017-10-22T08:55:22.509Z,5256.00
2017-10-22T08:56:22.524Z,5012.00
2017-10-22T08:57:22.500Z,5136.00
2017-10-22T08:58:22.528Z,4280.00
2017-10-22T08:59:22.549Z,4440.00
2017-10-22T09:00:22.538Z,3980.00
2017-10-22T09:01:22.519Z,3536.00
2017-10-22T09:02:22.541Z,3320.00
2017-10-22T09:03:22.530Z,3184.00
2017-10-22T09:04:22.545Z,3136.00
2017-10-22T09:05:22.565Z,3748.00
2017-10-22T09:06:22.554Z,3420.00
2017-10-22T09:07:22.589Z,2968.00
2017-10-22T09:08:22.557Z,3172.00
2017-10-22T09:09:22.616Z,3388.00
2017-10-22T09:10:22.603Z,3316.00
2017-10-22T09:11:22.603Z,3008.00
2017-10-22T09:12:22.605Z,2804.00
2017-10-22T09:13:22.625Z,3076.00
2017-10-22T09:14:22.647Z,3128.00
2017-10-22T09:15:22.635Z,3280.00
2017-10-22T09:16:22.630Z,2876.00
2017-10-22T09:17:22.620Z,3524.00
2017-10-22T09:18:22.669Z,3096.00
2017-10-22T09:19:22.656Z,3056.00
2017-10-22T09:20:22.688Z,3012.00
2017-10-22T09:21:22.673Z,3000.00
2017-10-22T09:22:22.660Z,3008.00
2017-10-22T09:23:22.697Z,3012.00
2017-10-22T09:24:22.680Z,2992.00
2017-10-22T09:25:22.715Z,2972.00
2017-10-22T09:26:22.693Z,2960.00
2017-10-22T09:27:22.695Z,2948.00
2017-10-22T09:28:22.692Z,2944.00
2017-10-22T09:29:22.716Z,2948.00
2017-10-22T09:30:22.710Z,2944.00
2017-10-22T09:31:22.753Z,2960.00
2017-10-22T09:32:22.732Z,3068.00
2017-10-22T09:33:22.751Z,3596.00
2017-10-22T09:34:22.784Z,3280.00
2017-10-22T09:35:22.743Z,3036.00
2017-10-22T09:36:22.768Z,3072.00
2017-10-22T09:37:22.784Z,2696.00
2017-10-22T09:38:22.783Z,3184.00
2017-10-22T09:39:22.776Z,2992.00
2017-10-22T09:40:22.783Z,3448.00
2017-10-22T09:41:22.789Z,3352.00
2017-10-22T09:42:22.793Z,3268.00
2017-10-22T09:43:22.822Z,3328.00
2017-10-22T09:44:22.820Z,2856.00
2017-10-22T09:45:22.797Z,3288.00
2017-10-22T09:46:22.813Z,3536.00
2017-10-22T09:47:22.838Z,4400.00
2017-10-22T09:48:22.850Z,4144.00
2017-10-22T09:49:22.836Z,4220.00
2017-10-22T09:50:22.855Z,4024.00
2017-10-22T09:51:22.880Z,4020.00
2017-10-22T09:52:22.852Z,4124.00
2017-10-22T09:53:22.876Z,3948.00
2017-10-22T09:54:22.865Z,3988.00
2017-10-22T09:55:22.905Z,3768.00
2017-10-22T09:56:22.875Z,3572.00
2017-10-22T09:57:22.925Z,3476.00
2017-10-22T09:58:22.919Z,3412.00
2017-10-22T09:59:22.913Z,3392.00
2017-10-22T10:00:22.919Z,2916.00
2017-10-22T10:01:22.923Z,3372.00
2017-10-22T10:02:22.945Z,3320.00
2017-10-22T10:03:22.929Z,3424.00
2017-10-22T10:04:22.958Z,3492.00
2017-10-22T10:05:22.963Z,2932.00
2017-10-22T10:06:22.999Z,3496.00
2017-10-22T10:07:22.970Z,3532.00
2017-10-22T10:08:22.972Z,3192.00
2017-10-22T10:09:23.002Z,3512.00
2017-10-22T10:10:22.998Z,3008.00
2017-10-22T10:11:23.002Z,3024.00
2017-10-22T10:12:22.977Z,3036.00
2017-10-22T10:13:23.017Z,3656.00
2017-10-22T10:14:23.018Z,3876.00
2017-10-22T10:15:23.015Z,3900.00
2017-10-22T10:16:23.023Z,3500.00
2017-10-22T10:17:23.026Z,3676.00
2017-10-22T10:18:23.034Z,3792.00
2017-10-22T10:19:23.035Z,3176.00
2017-10-22T10:20:23.060Z,3940.00
2017-10-22T10:21:23.056Z,3256.00
2017-10-22T10:22:23.062Z,3580.00
2017-10-22T10:23:23.092Z,4340.00
2017-10-22T10:24:23.079Z,5416.00
2017-10-22T10:25:23.087Z,4104.00
2017-10-22T10:26:23.103Z,3780.00
2017-10-22T10:27:23.095Z,3632.00
2017-10-22T10:28:23.113Z,4660.00
2017-10-22T10:29:23.143Z,3484.00
2017-10-22T10:30:23.139Z,5024.00
2017-10-22T10:31:23.143Z,5756.00
2017-10-22T10:32:23.159Z,7016.00
2017-10-22T10:33:23.128Z,9024.00
2017-10-22T10:34:23.147Z,10184.00
2017-10-22T10:35:23.157Z,10844.00
2017-10-22T10:36:23.161Z,4632.00
2017-10-22T10:37:23.172Z,10532.00
2017-10-22T10:38:23.172Z,4420.00
2017-10-22T10:39:23.200Z,4608.00
2017-10-22T10:40:23.188Z,5448.00
2017-10-22T10:41:23.206Z,11068.00
2017-10-22T10:42:23.192Z,4400.00
2017-10-22T10:43:23.203Z,3908.00
2017-10-22T10:44:23.207Z,4708.00
2017-10-22T10:45:23.221Z,4960.00
2017-10-22T10:46:23.260Z,3732.00
2017-10-22T10:47:23.247Z,3544.00
2017-10-22T10:48:23.245Z,4144.00
2017-10-22T10:49:23.248Z,4972.00
2017-10-22T10:50:23.273Z,4692.00
2017-10-22T10:51:23.257Z,5316.00
2017-10-22T10:52:23.280Z,4556.00
2017-10-22T10:53:23.285Z,4832.00
2017-10-22T10:54:23.288Z,6232.00
2017-10-22T10:55:23.328Z,10912.00
2017-10-22T10:56:23.312Z,10952.00
2017-10-22T10:57:23.299Z,5376.00
2017-10-22T10:58:23.304Z,4748.00
2017-10-22T10:59:23.332Z,5172.00
2017-10-22T11:00:23.344Z,5912.00
2017-10-22T11:01:23.325Z,6188.00
2017-10-22T11:02:23.335Z,8916.00
2017-10-22T11:03:23.346Z,6392.00
2017-10-22T11:04:23.346Z,6032.00
2017-10-22T11:05:23.375Z,5828.00
2017-10-22T11:06:23.373Z,5868.00
2017-10-22T11:07:23.398Z,6304.00
2017-10-22T11:08:23.380Z,7248.00
2017-10-22T11:09:23.375Z,7136.00
2017-10-22T11:10:23.402Z,7324.00
2017-10-22T11:11:23.386Z,6808.00
2017-10-22T11:12:23.413Z,6360.00
2017-10-22T11:13:23.421Z,7924.00
2017-10-22T11:14:23.423Z,7352.00
2017-10-22T11:15:23.414Z,7472.00
2017-10-22T11:16:23.430Z,7280.00
2017-10-22T11:17:23.472Z,7372.00
2017-10-22T11:18:23.464Z,5888.00
2017-10-22T11:19:23.483Z,5396.00
2017-10-22T11:20:23.462Z,5500.00
2017-10-22T11:21:23.470Z,4896.00
2017-10-22T11:22:23.494Z,5748.00
2017-10-22T11:23:23.515Z,6796.00
2017-10-22T11:24:23.528Z,7356.00
2017-10-22T11:25:23.528Z,7200.00
2017-10-22T11:26:23.508Z,7188.00
2017-10-22T11:27:23.530Z,6832.00
2017-10-22T11:28:23.527Z,6836.00
2017-10-22T11:29:23.533Z,5884.00
2017-10-22T11:30:23.544Z,6300.00
2017-10-22T11:31:23.569Z,6984.00
2017-10-22T11:32:23.567Z,6536.00
2017-10-22T11:33:23.561Z,6644.00
2017-10-22T11:34:23.618Z,6748.00
2017-10-22T11:35:23.604Z,5992.00
2017-10-22T11:36:23.604Z,6216.00
2017-10-22T11:37:23.614Z,6992.00
2017-10-22T11:38:23.625Z,7232.00
2017-10-22T11:39:23.615Z,7048.00
2017-10-22T11:40:23.630Z,6540.00
2017-10-22T11:41:23.629Z,6208.00
2017-10-22T11:42:23.664Z,5888.00
2017-10-22T11:43:23.650Z,6140.00
2017-10-22T11:44:23.663Z,6688.00
2017-10-22T11:45:23.658Z,6252.00
2017-10-22T11:46:23.682Z,5796.00
2017-10-22T11:47:23.693Z,6404.00
2017-10-22T11:48:23.692Z,7124.00
2017-10-22T11:49:23.709Z,6800.00
2017-10-22T11:50:23.714Z,6132.00
2017-10-22T11:51:23.748Z,5984.00
2017-10-22T11:52:23.719Z,7052.00
2017-10-22T11:53:23.721Z,6916.00
2017-10-22T11:54:23.732Z,6820.00
2017-10-22T11:55:23.760Z,6572.00
2017-10-22T11:56:23.744Z,5060.00
2017-10-22T11:57:23.770Z,4496.00
2017-10-22T11:58:23.784Z,4168.00
2017-10-22T11:59:23.788Z,4048.00
2017-10-22T12:00:23.802Z,4384.00
2017-10-22T12:01:23.792Z,4508.00
2017-10-22T12:02:23.794Z,4720.00
2017-10-22T12:03:23.813Z,4812.00
2017-10-22T12:04:23.812Z,4968.00
2017-10-22T12:05:23.817Z,4772.00
2017-10-22T12:06:23.832Z,4240.00
2017-10-22T12:07:23.822Z,4240.00
2017-10-22T12:08:23.842Z,4556.00
2017-10-22T12:09:23.845Z,4424.00
2017-10-22T12:10:23.888Z,3980.00
2017-10-22T12:11:23.871Z,3764.00
2017-10-22T12:12:23.863Z,4140.00
2017-10-22T12:13:23.904Z,4192.00
2017-10-22T12:14:23.893Z,4128.00
2017-10-22T12:15:23.898Z,3912.00
2017-10-22T12:16:23.939Z,4236.00
2017-10-22T12:17:23.918Z,4600.00
2017-10-22T12:18:23.940Z,4964.00
2017-10-22T12:19:23.967Z,5364.00
2017-10-22T12:20:23.945Z,5180.00
2017-10-22T12:21:23.954Z,4536.00
2017-10-22T12:22:23.945Z,3940.00
2017-10-22T12:23:23.967Z,3444.00
2017-10-22T12:24:23.961Z,3448.00
2017-10-22T12:25:23.985Z,3660.00
2017-10-22T12:26:24.001Z,3752.00
2017-10-22T12:27:24.015Z,3912.00
2017-10-22T12:28:23.997Z,4448.00
2017-10-22T12:29:24.043Z,5288.00
2017-10-22T12:30:24.026Z,5128.00
2017-10-22T12:31:24.043Z,4556.00
2017-10-22T12:32:24.029Z,4100.00
2017-10-22T12:33:24.073Z,3900.00
2017-10-22T12:34:24.063Z,3612.00
2017-10-22T12:35:24.076Z,3740.00
2017-10-22T12:36:24.045Z,4456.00
2017-10-22T12:37:24.069Z,4584.00